sensor_id;sensor_type;location;lat;lon;timestamp;temperature;humidity
38860;DHT22;24609;48.316;16.174;2023-07-20T00:01:15;18.20;99.90
38860;DHT22;24609;48.316;16.174;2023-07-20T00:03:41;18.20;99.90
38860;DHT22;24609;48.316;16.174;2023-07-20T00:06:07;18.10;99.90
38860;DHT22;24609;48.316;16.174;2023-07-20T00:08:32;18.10;99.90
38860;DHT22;24609;48.316;16.174;2023-07-20T00:10:58;18.10;99.90
38860;DHT22;24609;48.316;16.174;2023-07-20T00:13:24;18.00;99.90
38860;DHT22;24609;48.316;16.174;2023-07-20T00:15:50;18.10;99.90
38860;DHT22;24609;48.316;16.174;2023-07-20T00:18:16;18.20;99.90
38860;DHT22;24609;48.316;16.174;2023-07-20T00:20:42;18.20;99.90
38860;DHT22;24609;48.316;16.174;2023-07-20T00:23:07;18.30;99.90
38860;DHT22;24609;48.316;16.174;2023-07-20T00:25:34;18.30;99.90
38860;DHT22;24609;48.316;16.174;2023-07-20T00:28:01;18.40;99.90
38860;DHT22;24609;48.316;16.174;2023-07-20T00:30:27;18.30;99.90
38860;DHT22;24609;48.316;16.174;2023-07-20T00:32:52;18.30;99.90
38860;DHT22;24609;48.316;16.174;2023-07-20T00:35:18;18.30;99.90
38860;DHT22;24609;48.316;16.174;2023-07-20T00:37:44;18.30;99.90
38860;DHT22;24609;48.316;16.174;2023-07-20T00:40:09;18.30;99.90
38860;DHT22;24609;48.316;16.174;2023-07-20T00:42:35;18.30;99.90
38860;DHT22;24609;48.316;16.174;2023-07-20T00:45:01;18.40;99.90
38860;DHT22;24609;48.316;16.174;2023-07-20T00:47:27;18.50;99.90
38860;DHT22;24609;48.316;16.174;2023-07-20T00:49:53;18.50;99.90
38860;DHT22;24609;48.316;16.174;2023-07-20T00:52:21;18.60;99.90
38860;DHT22;24609;48.316;16.174;2023-07-20T00:54:49;18.50;99.90
38860;DHT22;24609;48.316;16.174;2023-07-20T00:57:15;18.40;99.90
38860;DHT22;24609;48.316;16.174;2023-07-20T00:59:43;18.40;99.90
38860;DHT22;24609;48.316;16.174;2023-07-20T01:02:09;18.40;99.90
38860;DHT22;24609;48.316;16.174;2023-07-20T01:04:35;18.50;99.90
38860;DHT22;24609;48.316;16.174;2023-07-20T01:12:27;18.60;99.90
38860;DHT22;24609;48.316;16.174;2023-07-20T01:14:55;18.50;99.90
38860;DHT22;24609;48.316;16.174;2023-07-20T01:17:22;18.50;99.90
38860;DHT22;24609;48.316;16.174;2023-07-20T01:19:49;18.40;99.90
38860;DHT22;24609;48.316;16.174;2023-07-20T01:33:37;18.00;99.90
38860;DHT22;24609;48.316;16.174;2023-07-20T01:36:04;17.90;99.90
38860;DHT22;24609;48.316;16.174;2023-07-20T01:38:30;17.80;99.90
38860;DHT22;24609;48.316;16.174;2023-07-20T01:40:57;17.70;99.90
38860;DHT22;24609;48.316;16.174;2023-07-20T01:43:23;17.70;99.90
38860;DHT22;24609;48.316;16.174;2023-07-20T01:45:49;17.70;99.90
38860;DHT22;24609;48.316;16.174;2023-07-20T01:48:14;17.60;99.90
38860;DHT22;24609;48.316;16.174;2023-07-20T01:50:40;17.60;99.90
38860;DHT22;24609;48.316;16.174;2023-07-20T01:53:06;17.50;99.90
38860;DHT22;24609;48.316;16.174;2023-07-20T01:55:31;17.50;99.90
38860;DHT22;24609;48.316;16.174;2023-07-20T01:57:58;17.50;99.90
38860;DHT22;24609;48.316;16.174;2023-07-20T02:00:25;17.40;99.90
38860;DHT22;24609;48.316;16.174;2023-07-20T02:02:51;17.30;99.90
38860;DHT22;24609;48.316;16.174;2023-07-20T02:05:17;17.40;99.90
38860;DHT22;24609;48.316;16.174;2023-07-20T02:07:43;17.40;99.90
38860;DHT22;24609;48.316;16.174;2023-07-20T02:10:09;17.50;99.90
38860;DHT22;24609;48.316;16.174;2023-07-20T02:12:35;17.60;99.90
38860;DHT22;24609;48.316;16.174;2023-07-20T02:15:02;17.70;99.90
38860;DHT22;24609;48.316;16.174;2023-07-20T02:17:27;17.60;99.90
38860;DHT22;24609;48.316;16.174;2023-07-20T02:19:53;17.50;99.90
38860;DHT22;24609;48.316;16.174;2023-07-20T02:22:21;17.30;99.90
38860;DHT22;24609;48.316;16.174;2023-07-20T02:24:47;17.20;99.90
38860;DHT22;24609;48.316;16.174;2023-07-20T02:27:12;17.10;99.90
38860;DHT22;24609;48.316;16.174;2023-07-20T02:29:40;17.10;99.90
38860;DHT22;24609;48.316;16.174;2023-07-20T02:32:06;17.20;99.90
38860;DHT22;24609;48.316;16.174;2023-07-20T02:34:32;17.40;99.90
38860;DHT22;24609;48.316;16.174;2023-07-20T02:36:58;17.50;99.90
38860;DHT22;24609;48.316;16.174;2023-07-20T02:39:27;17.50;99.90
38860;DHT22;24609;48.316;16.174;2023-07-20T02:41:53;17.40;99.90
38860;DHT22;24609;48.316;16.174;2023-07-20T02:44:19;17.30;99.90
38860;DHT22;24609;48.316;16.174;2023-07-20T02:46:46;17.20;99.90
38860;DHT22;24609;48.316;16.174;2023-07-20T02:49:11;17.20;99.90
38860;DHT22;24609;48.316;16.174;2023-07-20T02:51:37;17.10;99.90
38860;DHT22;24609;48.316;16.174;2023-07-20T02:54:03;17.00;99.90
38860;DHT22;24609;48.316;16.174;2023-07-20T02:56:29;17.10;99.90
38860;DHT22;24609;48.316;16.174;2023-07-20T02:58:54;17.20;99.90
38860;DHT22;24609;48.316;16.174;2023-07-20T03:01:20;17.30;99.90
38860;DHT22;24609;48.316;16.174;2023-07-20T03:03:46;17.30;99.90
38860;DHT22;24609;48.316;16.174;2023-07-20T03:06:15;17.50;99.90
38860;DHT22;24609;48.316;16.174;2023-07-20T03:08:42;17.60;99.90
38860;DHT22;24609;48.316;16.174;2023-07-20T03:11:15;17.60;99.90
38860;DHT22;24609;48.316;16.174;2023-07-20T03:13:42;17.80;99.90
38860;DHT22;24609;48.316;16.174;2023-07-20T03:16:08;18.00;99.90
38860;DHT22;24609;48.316;16.174;2023-07-20T03:18:37;18.00;99.90
38860;DHT22;24609;48.316;16.174;2023-07-20T03:21:04;18.20;99.90
38860;DHT22;24609;48.316;16.174;2023-07-20T03:23:30;18.20;99.90
38860;DHT22;24609;48.316;16.174;2023-07-20T03:25:56;18.20;99.90
38860;DHT22;24609;48.316;16.174;2023-07-20T03:28:22;18.20;99.90
38860;DHT22;24609;48.316;16.174;2023-07-20T03:30:56;18.30;99.90
38860;DHT22;24609;48.316;16.174;2023-07-20T03:33:29;18.40;99.90
38860;DHT22;24609;48.316;16.174;2023-07-20T03:35:55;18.40;99.90
38860;DHT22;24609;48.316;16.174;2023-07-20T03:38:22;18.40;99.90
38860;DHT22;24609;48.316;16.174;2023-07-20T03:40:59;18.40;99.90
38860;DHT22;24609;48.316;16.174;2023-07-20T03:43:26;18.40;99.90
38860;DHT22;24609;48.316;16.174;2023-07-20T03:45:52;18.50;99.90
38860;DHT22;24609;48.316;16.174;2023-07-20T03:48:20;18.60;99.90
38860;DHT22;24609;48.316;16.174;2023-07-20T03:50:51;18.70;99.90
38860;DHT22;24609;48.316;16.174;2023-07-20T03:53:17;18.80;99.90
38860;DHT22;24609;48.316;16.174;2023-07-20T03:55:50;19.00;99.90
38860;DHT22;24609;48.316;16.174;2023-07-20T03:58:16;19.10;99.90
38860;DHT22;24609;48.316;16.174;2023-07-20T04:00:49;19.20;99.90
38860;DHT22;24609;48.316;16.174;2023-07-20T04:03:16;19.20;99.90
38860;DHT22;24609;48.316;16.174;2023-07-20T04:05:42;19.30;99.90
38860;DHT22;24609;48.316;16.174;2023-07-20T04:08:08;19.30;99.90
38860;DHT22;24609;48.316;16.174;2023-07-20T04:10:34;19.40;99.90
38860;DHT22;24609;48.316;16.174;2023-07-20T04:13:01;19.40;99.90
38860;DHT22;24609;48.316;16.174;2023-07-20T04:15:26;19.20;99.90
38860;DHT22;24609;48.316;16.174;2023-07-20T04:17:52;19.30;99.90
38860;DHT22;24609;48.316;16.174;2023-07-20T04:20:18;19.40;99.90
38860;DHT22;24609;48.316;16.174;2023-07-20T04:22:44;19.50;99.90
38860;DHT22;24609;48.316;16.174;2023-07-20T04:25:09;19.60;99.90
38860;DHT22;24609;48.316;16.174;2023-07-20T04:27:36;19.80;99.90
38860;DHT22;24609;48.316;16.174;2023-07-20T04:30:01;19.90;99.90
38860;DHT22;24609;48.316;16.174;2023-07-20T04:32:29;20.10;99.90
38860;DHT22;24609;48.316;16.174;2023-07-20T04:34:54;20.30;99.90
38860;DHT22;24609;48.316;16.174;2023-07-20T04:37:20;20.40;99.90
38860;DHT22;24609;48.316;16.174;2023-07-20T04:39:46;20.40;99.90
38860;DHT22;24609;48.316;16.174;2023-07-20T04:42:12;20.50;99.90
38860;DHT22;24609;48.316;16.174;2023-07-20T04:44:38;20.90;99.90
38860;DHT22;24609;48.316;16.174;2023-07-20T04:47:04;21.10;99.90
38860;DHT22;24609;48.316;16.174;2023-07-20T04:49:29;21.40;99.90
38860;DHT22;24609;48.316;16.174;2023-07-20T04:51:55;21.50;99.90
38860;DHT22;24609;48.316;16.174;2023-07-20T04:54:20;21.40;99.90
38860;DHT22;24609;48.316;16.174;2023-07-20T04:56:46;21.30;99.90
38860;DHT22;24609;48.316;16.174;2023-07-20T04:59:12;21.40;99.90
38860;DHT22;24609;48.316;16.174;2023-07-20T05:01:37;21.40;99.90
38860;DHT22;24609;48.316;16.174;2023-07-20T05:04:03;21.40;99.90
38860;DHT22;24609;48.316;16.174;2023-07-20T05:06:29;21.70;99.90
38860;DHT22;24609;48.316;16.174;2023-07-20T05:08:55;21.70;99.90
38860;DHT22;24609;48.316;16.174;2023-07-20T05:11:20;21.60;99.90
38860;DHT22;24609;48.316;16.174;2023-07-20T05:13:46;21.50;99.90
38860;DHT22;24609;48.316;16.174;2023-07-20T05:16:12;21.40;99.90
38860;DHT22;24609;48.316;16.174;2023-07-20T05:18:37;21.50;99.90
38860;DHT22;24609;48.316;16.174;2023-07-20T05:21:03;21.60;99.90
38860;DHT22;24609;48.316;16.174;2023-07-20T05:23:29;21.70;99.90
38860;DHT22;24609;48.316;16.174;2023-07-20T05:25:58;21.90;99.90
38860;DHT22;24609;48.316;16.174;2023-07-20T05:28:24;22.40;99.90
38860;DHT22;24609;48.316;16.174;2023-07-20T05:30:51;23.10;99.90
38860;DHT22;24609;48.316;16.174;2023-07-20T05:33:20;23.50;99.90
38860;DHT22;24609;48.316;16.174;2023-07-20T05:35:47;23.00;99.90
38860;DHT22;24609;48.316;16.174;2023-07-20T05:38:12;23.00;99.90
38860;DHT22;24609;48.316;16.174;2023-07-20T05:40:39;22.70;99.90
38860;DHT22;24609;48.316;16.174;2023-07-20T05:43:05;23.00;99.90
38860;DHT22;24609;48.316;16.174;2023-07-20T05:45:31;23.00;99.90
38860;DHT22;24609;48.316;16.174;2023-07-20T05:47:57;23.10;99.90
38860;DHT22;24609;48.316;16.174;2023-07-20T05:50:22;23.50;99.90
38860;DHT22;24609;48.316;16.174;2023-07-20T05:52:48;23.90;99.90
38860;DHT22;24609;48.316;16.174;2023-07-20T05:55:14;24.50;99.90
38860;DHT22;24609;48.316;16.174;2023-07-20T05:57:40;25.00;99.90
38860;DHT22;24609;48.316;16.174;2023-07-20T06:00:08;24.60;99.90
38860;DHT22;24609;48.316;16.174;2023-07-20T06:02:34;24.70;99.90
38860;DHT22;24609;48.316;16.174;2023-07-20T06:05:00;24.90;99.90
38860;DHT22;24609;48.316;16.174;2023-07-20T06:07:26;24.60;99.90
38860;DHT22;24609;48.316;16.174;2023-07-20T06:09:51;25.00;99.90
38860;DHT22;24609;48.316;16.174;2023-07-20T06:12:17;25.50;99.90
38860;DHT22;24609;48.316;16.174;2023-07-20T06:14:43;25.50;99.90
38860;DHT22;24609;48.316;16.174;2023-07-20T06:17:08;26.40;99.80
38860;DHT22;24609;48.316;16.174;2023-07-20T06:19:35;27.40;97.80
38860;DHT22;24609;48.316;16.174;2023-07-20T06:22:00;28.00;94.60
38860;DHT22;24609;48.316;16.174;2023-07-20T06:24:26;28.70;93.60
38860;DHT22;24609;48.316;16.174;2023-07-20T06:26:52;27.80;93.90
38860;DHT22;24609;48.316;16.174;2023-07-20T06:29:17;27.20;94.90
38860;DHT22;24609;48.316;16.174;2023-07-20T06:31:44;26.30;95.10
38860;DHT22;24609;48.316;16.174;2023-07-20T06:34:10;25.90;95.20
38860;DHT22;24609;48.316;16.174;2023-07-20T06:36:35;26.50;95.60
38860;DHT22;24609;48.316;16.174;2023-07-20T06:39:02;27.90;93.50
38860;DHT22;24609;48.316;16.174;2023-07-20T06:41:28;29.40;90.70
38860;DHT22;24609;48.316;16.174;2023-07-20T06:43:53;30.30;85.70
38860;DHT22;24609;48.316;16.174;2023-07-20T06:46:24;30.90;81.50
38860;DHT22;24609;48.316;16.174;2023-07-20T06:48:50;31.40;76.50
38860;DHT22;24609;48.316;16.174;2023-07-20T06:51:16;31.20;78.80
38860;DHT22;24609;48.316;16.174;2023-07-20T06:53:42;30.00;78.80
38860;DHT22;24609;48.316;16.174;2023-07-20T06:56:07;30.10;80.40
38860;DHT22;24609;48.316;16.174;2023-07-20T06:58:33;28.90;79.20
38860;DHT22;24609;48.316;16.174;2023-07-20T07:00:59;28.80;82.90
38860;DHT22;24609;48.316;16.174;2023-07-20T07:03:24;28.70;79.90
38860;DHT22;24609;48.316;16.174;2023-07-20T07:05:50;28.90;83.40
38860;DHT22;24609;48.316;16.174;2023-07-20T07:08:20;28.60;81.30
38860;DHT22;24609;48.316;16.174;2023-07-20T07:10:45;27.80;82.30
38860;DHT22;24609;48.316;16.174;2023-07-20T07:13:11;28.00;83.40
38860;DHT22;24609;48.316;16.174;2023-07-20T07:15:37;28.10;82.30
38860;DHT22;24609;48.316;16.174;2023-07-20T07:18:02;28.30;82.50
38860;DHT22;24609;48.316;16.174;2023-07-20T07:20:28;29.20;84.40
38860;DHT22;24609;48.316;16.174;2023-07-20T07:22:55;29.90;79.80
38860;DHT22;24609;48.316;16.174;2023-07-20T07:25:22;30.50;77.50
38860;DHT22;24609;48.316;16.174;2023-07-20T07:27:48;30.60;74.00
38860;DHT22;24609;48.316;16.174;2023-07-20T07:30:14;30.30;76.60
38860;DHT22;24609;48.316;16.174;2023-07-20T07:32:39;30.10;77.50
38860;DHT22;24609;48.316;16.174;2023-07-20T07:35:06;30.50;77.20
38860;DHT22;24609;48.316;16.174;2023-07-20T07:37:32;30.40;73.90
38860;DHT22;24609;48.316;16.174;2023-07-20T07:39:58;29.20;71.80
38860;DHT22;24609;48.316;16.174;2023-07-20T07:42:23;29.10;76.80
38860;DHT22;24609;48.316;16.174;2023-07-20T07:44:49;28.70;73.90
38860;DHT22;24609;48.316;16.174;2023-07-20T07:47:14;29.40;74.90
38860;DHT22;24609;48.316;16.174;2023-07-20T07:49:40;29.30;74.20
38860;DHT22;24609;48.316;16.174;2023-07-20T07:52:06;28.70;73.40
38860;DHT22;24609;48.316;16.174;2023-07-20T07:54:32;28.60;77.50
38860;DHT22;24609;48.316;16.174;2023-07-20T07:56:57;29.00;78.40
38860;DHT22;24609;48.316;16.174;2023-07-20T07:59:23;30.20;73.60
38860;DHT22;24609;48.316;16.174;2023-07-20T08:01:49;31.20;68.30
38860;DHT22;24609;48.316;16.174;2023-07-20T08:04:15;30.90;68.20
38860;DHT22;24609;48.316;16.174;2023-07-20T08:06:40;29.90;66.00
38860;DHT22;24609;48.316;16.174;2023-07-20T08:09:06;29.30;70.90
38860;DHT22;24609;48.316;16.174;2023-07-20T08:11:32;30.00;68.30
38860;DHT22;24609;48.316;16.174;2023-07-20T08:14:00;30.60;65.40
38860;DHT22;24609;48.316;16.174;2023-07-20T08:16:26;30.30;66.20
38860;DHT22;24609;48.316;16.174;2023-07-20T08:18:52;29.70;65.60
38860;DHT22;24609;48.316;16.174;2023-07-20T08:21:17;30.50;62.90
38860;DHT22;24609;48.316;16.174;2023-07-20T08:23:44;29.40;65.40
38860;DHT22;24609;48.316;16.174;2023-07-20T08:26:09;28.30;70.00
38860;DHT22;24609;48.316;16.174;2023-07-20T08:28:35;27.70;71.60
38860;DHT22;24609;48.316;16.174;2023-07-20T08:31:01;26.50;73.60
38860;DHT22;24609;48.316;16.174;2023-07-20T08:33:28;25.90;78.00
38860;DHT22;24609;48.316;16.174;2023-07-20T08:35:55;25.90;79.30
38860;DHT22;24609;48.316;16.174;2023-07-20T08:38:22;25.80;79.20
38860;DHT22;24609;48.316;16.174;2023-07-20T08:40:47;25.60;80.50
38860;DHT22;24609;48.316;16.174;2023-07-20T08:43:14;25.20;83.10
38860;DHT22;24609;48.316;16.174;2023-07-20T08:45:42;25.40;83.70
38860;DHT22;24609;48.316;16.174;2023-07-20T08:48:11;25.80;82.50
38860;DHT22;24609;48.316;16.174;2023-07-20T08:50:38;25.80;80.70
38860;DHT22;24609;48.316;16.174;2023-07-20T08:53:04;29.40;72.50
38860;DHT22;24609;48.316;16.174;2023-07-20T08:55:30;29.00;69.40
38860;DHT22;24609;48.316;16.174;2023-07-20T08:57:58;28.60;73.70
38860;DHT22;24609;48.316;16.174;2023-07-20T09:00:25;28.60;71.30
38860;DHT22;24609;48.316;16.174;2023-07-20T09:02:53;28.40;69.70
38860;DHT22;24609;48.316;16.174;2023-07-20T09:05:20;28.40;74.40
38860;DHT22;24609;48.316;16.174;2023-07-20T09:07:47;30.70;66.50
38860;DHT22;24609;48.316;16.174;2023-07-20T09:10:13;29.80;70.90
38860;DHT22;24609;48.316;16.174;2023-07-20T09:12:41;28.30;71.10
38860;DHT22;24609;48.316;16.174;2023-07-20T09:15:08;27.00;75.70
38860;DHT22;24609;48.316;16.174;2023-07-20T09:17:34;26.70;78.00
38860;DHT22;24609;48.316;16.174;2023-07-20T09:20:08;27.30;74.70
38860;DHT22;24609;48.316;16.174;2023-07-20T09:22:37;29.50;70.90
38860;DHT22;24609;48.316;16.174;2023-07-20T09:25:11;29.20;69.90
38860;DHT22;24609;48.316;16.174;2023-07-20T09:27:47;28.10;70.20
38860;DHT22;24609;48.316;16.174;2023-07-20T09:30:15;26.80;73.50
38860;DHT22;24609;48.316;16.174;2023-07-20T09:32:44;26.50;75.90
38860;DHT22;24609;48.316;16.174;2023-07-20T09:38:01;27.50;77.30
38860;DHT22;24609;48.316;16.174;2023-07-20T09:40:27;27.90;76.70
38860;DHT22;24609;48.316;16.174;2023-07-20T09:42:54;28.50;71.50
38860;DHT22;24609;48.316;16.174;2023-07-20T09:45:40;27.60;72.20
38860;DHT22;24609;48.316;16.174;2023-07-20T09:48:07;26.80;76.70
38860;DHT22;24609;48.316;16.174;2023-07-20T09:50:39;28.00;76.30
38860;DHT22;24609;48.316;16.174;2023-07-20T09:53:07;27.30;75.90
38860;DHT22;24609;48.316;16.174;2023-07-20T09:55:34;30.10;71.00
38860;DHT22;24609;48.316;16.174;2023-07-20T09:58:00;34.00;62.20
38860;DHT22;24609;48.316;16.174;2023-07-20T10:00:26;34.60;57.10
38860;DHT22;24609;48.316;16.174;2023-07-20T10:02:52;34.30;55.60
38860;DHT22;24609;48.316;16.174;2023-07-20T10:05:19;34.60;54.30
38860;DHT22;24609;48.316;16.174;2023-07-20T10:07:50;34.20;52.90
38860;DHT22;24609;48.316;16.174;2023-07-20T10:10:17;31.90;55.00
38860;DHT22;24609;48.316;16.174;2023-07-20T10:12:46;30.70;57.90
38860;DHT22;24609;48.316;16.174;2023-07-20T10:17:59;29.50;59.70
38860;DHT22;24609;48.316;16.174;2023-07-20T10:20:27;29.40;60.00
38860;DHT22;24609;48.316;16.174;2023-07-20T10:22:54;27.90;63.10
38860;DHT22;24609;48.316;16.174;2023-07-20T10:25:23;28.20;63.20
38860;DHT22;24609;48.316;16.174;2023-07-20T10:27:49;32.50;55.80
38860;DHT22;24609;48.316;16.174;2023-07-20T10:30:15;32.90;52.70
38860;DHT22;24609;48.316;16.174;2023-07-20T10:32:42;34.90;48.10
38860;DHT22;24609;48.316;16.174;2023-07-20T10:35:18;34.10;47.70
38860;DHT22;24609;48.316;16.174;2023-07-20T10:37:52;35.00;46.80
38860;DHT22;24609;48.316;16.174;2023-07-20T10:40:37;36.70;44.40
38860;DHT22;24609;48.316;16.174;2023-07-20T10:43:05;36.90;38.90
38860;DHT22;24609;48.316;16.174;2023-07-20T10:48:05;33.30;42.10
38860;DHT22;24609;48.316;16.174;2023-07-20T10:50:33;34.10;43.20
38860;DHT22;24609;48.316;16.174;2023-07-20T10:53:10;36.40;39.50
38860;DHT22;24609;48.316;16.174;2023-07-20T10:55:37;36.50;38.30
38860;DHT22;24609;48.316;16.174;2023-07-20T10:58:14;36.20;36.60
38860;DHT22;24609;48.316;16.174;2023-07-20T11:01:01;35.20;37.70
38860;DHT22;24609;48.316;16.174;2023-07-20T11:03:32;34.50;38.80
38860;DHT22;24609;48.316;16.174;2023-07-20T11:05:58;35.80;37.10
38860;DHT22;24609;48.316;16.174;2023-07-20T11:08:43;35.80;34.40
38860;DHT22;24609;48.316;16.174;2023-07-20T11:11:47;35.70;35.60
38860;DHT22;24609;48.316;16.174;2023-07-20T11:14:26;35.80;35.50
38860;DHT22;24609;48.316;16.174;2023-07-20T11:16:52;35.60;34.20
38860;DHT22;24609;48.316;16.174;2023-07-20T11:19:25;37.10;32.20
38860;DHT22;24609;48.316;16.174;2023-07-20T11:21:55;34.80;32.90
38860;DHT22;24609;48.316;16.174;2023-07-20T11:24:21;34.50;34.60
38860;DHT22;24609;48.316;16.174;2023-07-20T11:26:54;35.40;34.70
38860;DHT22;24609;48.316;16.174;2023-07-20T11:29:21;35.50;34.00
38860;DHT22;24609;48.316;16.174;2023-07-20T11:31:48;36.50;31.80
38860;DHT22;24609;48.316;16.174;2023-07-20T11:34:17;36.70;32.60
38860;DHT22;24609;48.316;16.174;2023-07-20T11:36:44;37.80;31.40
38860;DHT22;24609;48.316;16.174;2023-07-20T11:39:12;37.30;28.90
38860;DHT22;24609;48.316;16.174;2023-07-20T11:41:38;34.00;32.90
38860;DHT22;24609;48.316;16.174;2023-07-20T11:44:05;32.50;35.30
38860;DHT22;24609;48.316;16.174;2023-07-20T11:46:33;33.10;36.20
38860;DHT22;24609;48.316;16.174;2023-07-20T11:48:59;32.80;34.60
38860;DHT22;24609;48.316;16.174;2023-07-20T11:51:27;31.50;35.70
38860;DHT22;24609;48.316;16.174;2023-07-20T11:53:53;31.20;38.20
38860;DHT22;24609;48.316;16.174;2023-07-20T11:56:19;32.10;36.60
38860;DHT22;24609;48.316;16.174;2023-07-20T11:58:46;32.40;35.10
38860;DHT22;24609;48.316;16.174;2023-07-20T12:01:13;33.50;35.00
38860;DHT22;24609;48.316;16.174;2023-07-20T12:03:39;33.40;34.30
38860;DHT22;24609;48.316;16.174;2023-07-20T12:06:13;31.50;36.00
38860;DHT22;24609;48.316;16.174;2023-07-20T12:08:39;31.10;36.10
38860;DHT22;24609;48.316;16.174;2023-07-20T12:11:07;33.70;33.40
38860;DHT22;24609;48.316;16.174;2023-07-20T12:13:42;33.80;33.80
38860;DHT22;24609;48.316;16.174;2023-07-20T12:16:15;37.00;30.70
38860;DHT22;24609;48.316;16.174;2023-07-20T12:18:43;33.60;31.90
38860;DHT22;24609;48.316;16.174;2023-07-20T12:21:09;30.80;35.30
38860;DHT22;24609;48.316;16.174;2023-07-20T12:23:39;31.10;35.30
38860;DHT22;24609;48.316;16.174;2023-07-20T12:26:09;33.70;32.30
38860;DHT22;24609;48.316;16.174;2023-07-20T12:28:42;32.90;32.80
38860;DHT22;24609;48.316;16.174;2023-07-20T12:31:08;32.70;33.20
38860;DHT22;24609;48.316;16.174;2023-07-20T12:33:35;31.30;34.40
38860;DHT22;24609;48.316;16.174;2023-07-20T12:36:01;31.40;35.10
38860;DHT22;24609;48.316;16.174;2023-07-20T12:38:27;30.20;35.40
38860;DHT22;24609;48.316;16.174;2023-07-20T12:40:54;30.60;37.20
38860;DHT22;24609;48.316;16.174;2023-07-20T12:43:22;32.30;34.50
38860;DHT22;24609;48.316;16.174;2023-07-20T12:45:48;33.80;32.20
38860;DHT22;24609;48.316;16.174;2023-07-20T12:48:14;33.10;32.30
38860;DHT22;24609;48.316;16.174;2023-07-20T12:50:39;31.20;34.60
38860;DHT22;24609;48.316;16.174;2023-07-20T12:53:05;30.20;36.20
38860;DHT22;24609;48.316;16.174;2023-07-20T12:55:31;31.50;35.40
38860;DHT22;24609;48.316;16.174;2023-07-20T12:57:57;35.90;29.60
38860;DHT22;24609;48.316;16.174;2023-07-20T13:00:23;34.10;30.70
38860;DHT22;24609;48.316;16.174;2023-07-20T13:02:49;34.20;30.10
38860;DHT22;24609;48.316;16.174;2023-07-20T13:05:15;33.40;30.80
38860;DHT22;24609;48.316;16.174;2023-07-20T13:07:42;34.50;30.90
38860;DHT22;24609;48.316;16.174;2023-07-20T13:10:08;34.00;28.70
38860;DHT22;24609;48.316;16.174;2023-07-20T13:12:35;34.50;28.90
38860;DHT22;24609;48.316;16.174;2023-07-20T13:15:03;35.30;28.40
38860;DHT22;24609;48.316;16.174;2023-07-20T13:17:34;34.70;27.50
38860;DHT22;24609;48.316;16.174;2023-07-20T13:20:00;36.00;28.40
38860;DHT22;24609;48.316;16.174;2023-07-20T13:22:26;38.20;26.10
38860;DHT22;24609;48.316;16.174;2023-07-20T13:24:52;40.20;24.10
38860;DHT22;24609;48.316;16.174;2023-07-20T13:27:19;38.00;25.10
38860;DHT22;24609;48.316;16.174;2023-07-20T13:29:45;35.10;29.20
38860;DHT22;24609;48.316;16.174;2023-07-20T13:32:13;34.90;31.50
38860;DHT22;24609;48.316;16.174;2023-07-20T13:34:43;35.30;29.30
38860;DHT22;24609;48.316;16.174;2023-07-20T13:37:10;35.80;30.50
38860;DHT22;24609;48.316;16.174;2023-07-20T13:39:36;35.60;30.00
38860;DHT22;24609;48.316;16.174;2023-07-20T13:42:02;34.00;32.00
38860;DHT22;24609;48.316;16.174;2023-07-20T13:44:31;33.10;34.40
38860;DHT22;24609;48.316;16.174;2023-07-20T13:46:56;31.70;34.50
38860;DHT22;24609;48.316;16.174;2023-07-20T13:49:22;30.70;37.90
38860;DHT22;24609;48.316;16.174;2023-07-20T13:51:48;30.30;37.70
38860;DHT22;24609;48.316;16.174;2023-07-20T13:54:14;29.80;37.70
38860;DHT22;24609;48.316;16.174;2023-07-20T13:56:40;29.50;39.40
38860;DHT22;24609;48.316;16.174;2023-07-20T13:59:05;29.80;39.70
38860;DHT22;24609;48.316;16.174;2023-07-20T14:01:31;30.10;38.10
38860;DHT22;24609;48.316;16.174;2023-07-20T14:04:00;30.20;37.50
38860;DHT22;24609;48.316;16.174;2023-07-20T14:06:29;30.40;37.80
38860;DHT22;24609;48.316;16.174;2023-07-20T14:08:54;30.10;39.70
38860;DHT22;24609;48.316;16.174;2023-07-20T14:11:20;29.70;39.60
38860;DHT22;24609;48.316;16.174;2023-07-20T14:13:46;30.00;38.90
38860;DHT22;24609;48.316;16.174;2023-07-20T14:16:11;30.00;38.90
38860;DHT22;24609;48.316;16.174;2023-07-20T14:18:37;31.00;39.10
38860;DHT22;24609;48.316;16.174;2023-07-20T14:21:03;31.00;37.80
38860;DHT22;24609;48.316;16.174;2023-07-20T14:23:30;35.00;32.90
38860;DHT22;24609;48.316;16.174;2023-07-20T14:25:56;40.30;27.70
38860;DHT22;24609;48.316;16.174;2023-07-20T14:28:22;43.40;23.40
38860;DHT22;24609;48.316;16.174;2023-07-20T14:30:47;45.00;21.40
38860;DHT22;24609;48.316;16.174;2023-07-20T14:33:13;44.60;19.30
38860;DHT22;24609;48.316;16.174;2023-07-20T14:35:38;42.10;18.40
38860;DHT22;24609;48.316;16.174;2023-07-20T14:38:04;39.30;19.60
38860;DHT22;24609;48.316;16.174;2023-07-20T14:40:30;37.70;21.10
38860;DHT22;24609;48.316;16.174;2023-07-20T14:42:56;36.90;21.70
38860;DHT22;24609;48.316;16.174;2023-07-20T14:45:22;38.20;19.80
38860;DHT22;24609;48.316;16.174;2023-07-20T14:47:47;36.80;21.30
38860;DHT22;24609;48.316;16.174;2023-07-20T14:50:21;36.60;21.10
38860;DHT22;24609;48.316;16.174;2023-07-20T14:52:47;36.50;21.00
38860;DHT22;24609;48.316;16.174;2023-07-20T14:55:13;37.80;21.60
38860;DHT22;24609;48.316;16.174;2023-07-20T14:57:39;37.30;20.90
38860;DHT22;24609;48.316;16.174;2023-07-20T15:00:05;35.80;21.70
38860;DHT22;24609;48.316;16.174;2023-07-20T15:02:36;36.40;21.90
38860;DHT22;24609;48.316;16.174;2023-07-20T15:05:03;36.80;21.80
38860;DHT22;24609;48.316;16.174;2023-07-20T15:07:28;36.90;20.60
38860;DHT22;24609;48.316;16.174;2023-07-20T15:09:54;35.30;22.30
38860;DHT22;24609;48.316;16.174;2023-07-20T15:12:20;35.50;23.40
38860;DHT22;24609;48.316;16.174;2023-07-20T15:17:29;33.90;22.90
38860;DHT22;24609;48.316;16.174;2023-07-20T15:19:55;34.50;23.70
38860;DHT22;24609;48.316;16.174;2023-07-20T15:22:21;36.00;21.40
38860;DHT22;24609;48.316;16.174;2023-07-20T15:24:47;35.90;21.80
38860;DHT22;24609;48.316;16.174;2023-07-20T15:27:13;34.40;22.70
38860;DHT22;24609;48.316;16.174;2023-07-20T15:29:39;34.40;23.70
38860;DHT22;24609;48.316;16.174;2023-07-20T15:32:05;36.10;22.80
38860;DHT22;24609;48.316;16.174;2023-07-20T15:34:31;34.70;23.10
38860;DHT22;24609;48.316;16.174;2023-07-20T15:36:57;35.50;22.40
38860;DHT22;24609;48.316;16.174;2023-07-20T15:39:23;36.80;21.50
38860;DHT22;24609;48.316;16.174;2023-07-20T15:41:50;35.30;21.90